Time;durP1;ratioP1;P1;durP2;ratioP2;P2;SDS_P1;SDS_P2;PMS_P1;PMS_P2;Temp;Humidity;BMP_temperature;BMP_pressure;BME280_temperature;BME280_humidity;BME280_pressure;Samples;Min_cycle;Max_cycle;Signal;HPM_P1;HPM_P2
2022/03/28 00:00:31;;;;;;;;;24.33;22.33;;;;;23.16;59.07;102241.94;5073438;28;45984;-72
2022/03/28 00:02:58;;;;;;;;;27.33;22.33;;;;;23.16;59.01;102236.53;5072831;28;45846;-69
2022/03/28 00:05:23;;;;;;;;;28.00;25.00;;;;;23.14;59.19;102233.00;5073614;28;45458;-70
2022/03/28 00:07:48;;;;;;;;;25.67;23.33;;;;;23.13;58.94;102228.53;5076707;28;54124;-69
2022/03/28 00:10:14;;;;;;;;;25.33;25.00;;;;;23.15;59.15;102233.88;5052540;28;62168;-69
2022/03/28 00:12:40;;;;;;;;;26.33;26.33;;;;;23.14;59.15;102224.03;5069586;28;45451;-69
2022/03/28 00:15:06;;;;;;;;;26.00;24.00;;;;;23.14;59.16;102234.81;5076568;28;45251;-69
2022/03/28 00:17:32;;;;;;;;;32.67;24.67;;;;;23.13;59.24;102233.94;5053322;28;45329;-69
2022/03/28 00:19:58;;;;;;;;;26.67;25.33;;;;;23.13;59.31;102231.22;5058942;28;46305;-69
2022/03/28 00:22:24;;;;;;;;;26.00;22.67;;;;;23.10;59.13;102225.88;5069923;28;45392;-69
2022/03/28 00:24:50;;;;;;;;;23.67;23.67;;;;;23.12;58.97;102225.88;5057668;28;45220;-69
2022/03/28 00:27:17;;;;;;;;;24.33;22.00;;;;;23.11;59.24;102222.28;5072344;28;50105;-69
2022/03/28 00:29:43;;;;;;;;;32.00;23.33;;;;;23.10;59.22;102223.19;5048871;28;45840;-69
2022/03/28 00:32:08;;;;;;;;;25.67;25.67;;;;;23.10;59.50;102211.53;5070806;28;45465;-69
2022/03/28 00:34:34;;;;;;;;;22.00;20.67;;;;;23.10;59.32;102204.34;5076249;28;47687;-69
2022/03/28 00:36:59;;;;;;;;;24.67;22.33;;;;;23.10;59.28;102206.16;5073105;28;55293;-71
2022/03/28 00:39:24;;;;;;;;;24.33;22.67;;;;;23.08;59.41;102208.88;5075979;28;56145;-69
2022/03/28 00:41:50;;;;;;;;;28.00;22.67;;;;;23.08;59.25;102208.88;5057491;28;58017;-72
2022/03/28 00:44:16;;;;;;;;;27.00;22.67;;;;;23.08;59.42;102205.28;5076675;28;45517;-68
2022/03/28 00:46:41;;;;;;;;;22.33;21.00;;;;;23.07;59.53;102200.81;5058178;28;45540;-68
2022/03/28 00:49:07;;;;;;;;;27.00;21.67;;;;;23.08;59.78;102200.78;5054350;28;48279;-69
2022/03/28 00:51:32;;;;;;;;;25.00;24.67;;;;;23.08;59.51;102200.78;5064817;28;51744;-69
2022/03/28 00:53:58;;;;;;;;;24.33;22.33;;;;;23.08;59.17;102198.09;5068802;28;45335;-69
2022/03/28 00:56:24;;;;;;;;;23.67;20.67;;;;;23.06;59.63;102197.22;5058378;28;45514;-72
2022/03/28 00:58:49;;;;;;;;;25.67;24.00;;;;;23.06;59.64;102199.91;5041144;28;46762;-69
2022/03/28 01:01:15;;;;;;;;;26.33;25.33;;;;;23.05;59.36;102200.84;5070360;28;45458;-69
2022/03/28 01:03:40;;;;;;;;;24.33;20.67;;;;;23.05;59.53;102192.75;5053369;28;45404;-69
2022/03/28 01:06:06;;;;;;;;;33.00;24.33;;;;;23.05;59.70;102189.19;5074257;28;45379;-72
2022/03/28 01:08:31;;;;;;;;;25.00;21.67;;;;;23.07;59.74;102190.94;5075004;28;46444;-68
2022/03/28 01:10:57;;;;;;;;;21.33;20.67;;;;;23.07;60.00;102187.34;5074596;28;45461;-69
2022/03/28 01:13:23;;;;;;;;;24.00;22.67;;;;;23.08;59.50;102186.44;5052367;28;54053;-70
2022/03/28 01:15:49;;;;;;;;;25.67;23.00;;;;;23.06;59.72;102186.44;5057892;28;45400;-68
2022/03/28 01:18:15;;;;;;;;;21.67;20.33;;;;;23.07;59.70;102180.16;5050620;28;45571;-70
2022/03/28 01:20:40;;;;;;;;;23.33;21.33;;;;;23.07;59.67;102182.84;5055503;28;45490;-68
2022/03/28 01:23:06;;;;;;;;;28.00;22.67;;;;;23.04;59.81;102177.50;5073213;28;45431;-70
2022/03/28 01:25:32;;;;;;;;;23.33;23.33;;;;;23.07;59.42;102184.66;5076135;28;45444;-71
2022/03/28 01:27:58;;;;;;;;;22.33;19.33;;;;;23.07;59.71;102176.59;5039216;28;45990;-68
2022/03/28 01:30:25;;;;;;;;;23.00;20.67;;;;;23.08;59.62;102178.34;5075536;28;45484;-69
2022/03/28 01:32:51;;;;;;;;;23.67;22.67;;;;;23.07;59.77;102160.41;5071422;28;45371;-68
2022/03/28 01:35:32;;;;;;;;;20.33;20.33;;;;;23.09;59.62;102174.72;5033657;28;45545;-69
2022/03/28 01:37:58;;;;;;;;;21.67;19.33;;;;;23.07;59.86;102163.09;5070007;28;46806;-71
2022/03/28 01:40:24;;;;;;;;;29.00;20.33;;;;;23.07;59.87;102163.09;5059148;28;45497;-70
2022/03/28 01:42:49;;;;;;;;;21.67;21.33;;;;;23.08;59.90;102157.69;5079329;28;45399;-68
2022/03/28 01:45:16;;;;;;;;;24.00;23.33;;;;;23.08;59.96;102159.50;5078335;28;45551;-69
2022/03/28 01:47:42;;;;;;;;;21.33;17.67;;;;;23.06;59.85;102155.91;5078791;28;46677;-70
2022/03/28 01:50:07;;;;;;;;;23.00;17.33;;;;;23.06;60.01;102148.72;5075222;28;45307;-68
2022/03/28 01:52:33;;;;;;;;;22.00;19.33;;;;;23.07;60.18;102144.25;5059187;28;45314;-70
2022/03/28 01:54:58;;;;;;;;;23.67;20.33;;;;;23.09;59.77;102156.75;5079228;28;45387;-71
2022/03/28 01:57:23;;;;;;;;;22.67;20.67;;;;;23.09;59.94;102148.69;5075522;28;60424;-69
2022/03/28 01:59:49;;;;;;;;;21.67;20.33;;;;;23.08;59.92;102146.91;5077994;28;58646;-69
2022/03/28 02:02:14;;;;;;;;;24.00;19.33;;;;;23.09;60.05;102153.19;5079214;28;45532;-69
2022/03/28 02:04:40;;;;;;;;;19.33;16.00;;;;;23.09;60.23;102155.88;5078529;28;53645;-69
2022/03/28 02:07:05;;;;;;;;;22.67;19.67;;;;;23.09;60.13;102154.06;5078728;28;52354;-68
2022/03/28 02:09:30;;;;;;;;;17.33;17.33;;;;;23.11;59.95;102151.31;5074000;28;57497;-71
2022/03/28 02:11:56;;;;;;;;;22.33;20.33;;;;;23.10;60.11;102149.56;5059783;28;45358;-68
2022/03/28 02:14:21;;;;;;;;;21.67;19.33;;;;;23.09;60.64;102139.72;5079287;28;45459;-69
2022/03/28 02:16:47;;;;;;;;;21.00;19.33;;;;;23.10;60.25;102136.09;5075639;28;47519;-69
2022/03/28 02:19:12;;;;;;;;;20.67;18.67;;;;;23.11;60.11;102151.31;5077059;28;45406;-69
2022/03/28 02:21:37;;;;;;;;;21.33;20.00;;;;;23.10;60.25;102152.25;5060812;28;45731;-68
2022/03/28 02:24:03;;;;;;;;;18.67;15.67;;;;;23.10;60.25;102141.47;5078055;28;53165;-69
2022/03/28 02:26:28;;;;;;;;;18.33;18.33;;;;;23.10;60.18;102145.06;5073170;28;45849;-71
2022/03/28 02:28:54;;;;;;;;;20.67;19.00;;;;;23.10;60.07;102142.34;5078210;28;57748;-71
2022/03/28 02:31:19;;;;;;;;;20.67;18.33;;;;;23.12;60.51;102136.97;5070080;28;56103;-68
2022/03/28 02:33:45;;;;;;;;;18.33;17.00;;;;;23.09;60.19;102135.19;5074979;28;45543;-68
2022/03/28 02:36:10;;;;;;;;;22.67;17.67;;;;;23.08;60.13;102138.81;5076455;28;51458;-68
2022/03/28 02:38:36;;;;;;;;;22.00;18.67;;;;;23.09;60.53;102131.63;5074204;28;45410;-70
2022/03/28 02:41:01;;;;;;;;;20.33;17.00;;;;;23.09;60.11;102134.31;5072003;28;55483;-70
2022/03/28 02:43:27;;;;;;;;;18.33;17.00;;;;;23.08;60.16;102132.53;5060145;28;45509;-69
2022/03/28 02:45:52;;;;;;;;;21.33;19.00;;;;;23.05;60.31;102120.00;5078694;28;46412;-68
2022/03/28 02:48:17;;;;;;;;;22.67;19.67;;;;;23.07;60.21;102118.19;5074180;28;57955;-69
2022/03/28 02:50:43;;;;;;;;;19.00;18.67;;;;;23.07;60.07;102122.69;5070332;28;45726;-68
2022/03/28 02:53:08;;;;;;;;;18.33;17.33;;;;;23.06;60.15;102115.50;5070499;28;45617;-71
2022/03/28 02:55:34;;;;;;;;;20.67;19.33;;;;;23.05;60.46;102111.03;5052688;28;61602;-68
2022/03/28 02:57:59;;;;;;;;;18.00;17.00;;;;;23.06;60.36;102107.44;5074413;28;45500;-68
2022/03/28 03:00:25;;;;;;;;;27.00;20.00;;;;;23.09;60.61;102110.06;5056840;28;56127;-68
2022/03/28 03:02:51;;;;;;;;;13.67;13.00;;;;;23.10;60.14;102109.16;5057171;28;45555;-70
2022/03/28 03:05:16;;;;;;;;;15.67;13.67;;;;;23.12;60.36;102108.22;5078276;28;45960;-69
2022/03/28 03:07:42;;;;;;;;;20.33;18.33;;;;;23.13;60.61;102112.66;5077040;28;60024;-71
2022/03/28 03:10:08;;;;;;;;;18.00;18.00;;;;;23.14;60.29;102100.09;5074309;28;45551;-68
2022/03/28 03:12:34;;;;;;;;;20.67;17.33;;;;;23.15;60.17;102096.47;5077671;28;45621;-68
2022/03/28 03:14:59;;;;;;;;;17.33;15.67;;;;;23.16;60.28;102092.84;5077736;28;57337;-68
2022/03/28 03:17:25;;;;;;;;;23.33;19.00;;;;;23.14;60.38;102095.56;5075745;28;50165;-71
2022/03/28 03:19:50;;;;;;;;;21.00;17.00;;;;;23.16;60.29;102096.41;5059510;28;45347;-71
2022/03/28 03:22:15;;;;;;;;;20.67;15.67;;;;;23.16;60.05;102091.03;5042933;28;45542;-69
2022/03/28 03:24:41;;;;;;;;;19.33;14.00;;;;;23.15;60.21;102081.19;5076233;28;60902;-69
2022/03/28 03:27:07;;;;;;;;;18.67;16.33;;;;;23.16;60.16;102098.22;5073144;28;45365;-69
2022/03/28 03:29:34;;;;;;;;;24.00;16.33;;;;;23.17;60.27;102091.91;5071027;28;45386;-69
2022/03/28 03:31:59;;;;;;;;;17.33;16.00;;;;;23.16;60.09;102085.63;5059601;28;45517;-68
2022/03/28 03:34:24;;;;;;;;;17.33;17.33;;;;;23.14;59.99;102090.19;5075661;28;46721;-68
2022/03/28 03:36:50;;;;;;;;;17.00;15.33;;;;;23.15;60.23;102091.06;5077739;28;45342;-68
2022/03/28 03:39:15;;;;;;;;;22.33;17.00;;;;;23.13;60.12;102090.22;5059417;28;45412;-68
2022/03/28 03:41:41;;;;;;;;;19.67;18.00;;;;;23.14;60.30;102089.31;5077280;28;45580;-71
2022/03/28 03:44:06;;;;;;;;;17.33;15.67;;;;;23.12;60.06;102089.34;5073114;28;59755;-69
2022/03/28 03:46:32;;;;;;;;;18.67;15.33;;;;;23.13;60.02;102087.53;5077468;28;45638;-68
2022/03/28 03:48:58;;;;;;;;;17.00;17.00;;;;;23.12;60.34;102085.78;5064888;28;45414;-70
2022/03/28 03:51:23;;;;;;;;;16.00;16.00;;;;;23.12;60.02;102086.66;5075643;28;45454;-68
2022/03/28 03:53:48;;;;;;;;;15.67;14.67;;;;;23.13;60.00;102082.16;5069018;28;63431;-71
2022/03/28 03:56:14;;;;;;;;;21.00;19.33;;;;;23.11;60.03;102075.88;5076111;28;59019;-68
2022/03/28 03:58:40;;;;;;;;;18.67;15.67;;;;;23.12;59.55;102085.78;5077100;28;45294;-69
2022/03/28 04:01:05;;;;;;;;;18.33;15.67;;;;;23.11;60.09;102090.25;5076821;28;53784;-68
2022/03/28 04:03:33;;;;;;;;;15.00;15.00;;;;;23.12;59.99;102080.38;5054738;28;47599;-68
2022/03/28 04:05:58;;;;;;;;;19.33;16.00;;;;;23.11;59.56;102078.56;5077441;28;45375;-68
2022/03/28 04:08:24;;;;;;;;;17.33;16.00;;;;;23.11;59.90;102075.88;5075902;28;45508;-68
2022/03/28 04:10:49;;;;;;;;;19.33;18.00;;;;;23.09;59.87;102080.44;5069532;28;45525;-68
2022/03/28 04:13:15;;;;;;;;;23.33;19.00;;;;;23.09;59.92;102080.44;5051997;28;46770;-68
2022/03/28 04:15:40;;;;;;;;;18.33;16.67;;;;;23.05;59.82;102068.81;5076527;28;45359;-72
2022/03/28 04:18:06;;;;;;;;;17.00;14.00;;;;;23.08;59.88;102078.66;5076072;28;53422;-68
2022/03/28 04:20:32;;;;;;;;;17.67;13.67;;;;;23.06;59.93;102077.78;5070217;28;45528;-68
2022/03/28 04:22:57;;;;;;;;;19.33;16.67;;;;;23.05;59.83;102079.59;5076717;28;45308;-68
2022/03/28 04:25:23;;;;;;;;;20.67;17.00;;;;;23.07;59.59;102084.97;5076873;28;45307;-71
2022/03/28 04:27:48;;;;;;;;;19.67;17.67;;;;;23.05;60.16;102084.09;5074611;28;45343;-68
2022/03/28 04:30:14;;;;;;;;;18.33;15.33;;;;;23.04;59.93;102082.34;5070491;28;50160;-67
2022/03/28 04:32:39;;;;;;;;;18.33;17.00;;;;;23.07;59.99;102084.97;5075749;28;46350;-68
2022/03/28 04:35:05;;;;;;;;;18.00;14.00;;;;;23.06;59.75;102084.06;5075434;28;45466;-69
2022/03/28 04:37:34;;;;;;;;;22.67;17.67;;;;;23.06;59.64;102075.97;5076704;28;45374;-68
2022/03/28 04:40:00;;;;;;;;;20.67;17.67;;;;;23.06;59.65;102078.66;5075089;28;46224;-69
2022/03/28 04:42:25;;;;;;;;;20.00;18.67;;;;;23.06;59.82;102077.78;5075934;28;46543;-68
2022/03/28 04:44:51;;;;;;;;;20.00;16.33;;;;;23.07;60.13;102084.97;5071447;28;45356;-71
2022/03/28 04:47:16;;;;;;;;;19.00;14.00;;;;;23.08;59.95;102081.34;5076400;28;53641;-68
2022/03/28 04:49:42;;;;;;;;;21.67;15.67;;;;;23.07;59.94;102077.78;5071206;28;45592;-69
2022/03/28 04:52:07;;;;;;;;;18.00;16.33;;;;;23.08;59.83;102070.59;5071105;28;46756;-69
2022/03/28 04:54:33;;;;;;;;;18.67;16.00;;;;;23.07;59.80;102071.50;5071555;28;62398;-68
2022/03/28 04:56:58;;;;;;;;;18.67;16.67;;;;;23.07;59.78;102064.31;5075713;28;45359;-68
2022/03/28 04:59:23;;;;;;;;;18.00;17.00;;;;;23.07;60.16;102071.50;5076099;28;49915;-68
2022/03/28 05:01:49;;;;;;;;;23.33;19.00;;;;;23.06;60.20;102059.81;5075077;28;59559;-70
2022/03/28 05:04:14;;;;;;;;;21.00;15.33;;;;;23.04;59.96;102061.66;5075106;28;60734;-68
2022/03/28 05:06:39;;;;;;;;;21.67;19.33;;;;;23.06;60.18;102069.72;5075734;28;53004;-68
2022/03/28 05:09:05;;;;;;;;;21.00;18.67;;;;;23.06;59.58;102059.81;5076645;28;45240;-71
2022/03/28 05:11:30;;;;;;;;;19.33;16.67;;;;;23.06;59.66;102059.81;5074842;28;59753;-69
2022/03/28 05:13:58;;;;;;;;;23.67;17.67;;;;;23.04;59.73;102050.88;5072637;28;45395;-69
2022/03/28 05:16:24;;;;;;;;;21.67;19.33;;;;;23.08;59.84;102062.50;5073976;28;45712;-68
2022/03/28 05:18:49;;;;;;;;;19.00;19.00;;;;;23.07;59.71;102055.34;5070959;28;53903;-68
2022/03/28 05:21:14;;;;;;;;;20.33;19.00;;;;;23.06;60.27;102061.63;5074560;28;55748;-68
2022/03/28 05:23:40;;;;;;;;;20.00;16.67;;;;;23.07;59.96;102061.63;5074851;28;45330;-68
2022/03/28 05:26:05;;;;;;;;;20.00;16.33;;;;;23.07;59.73;102068.81;5072276;28;45474;-70
2022/03/28 05:28:30;;;;;;;;;24.67;20.67;;;;;23.07;59.80;102069.69;5075212;28;45372;-68
2022/03/28 05:30:58;;;;;;;;;21.00;17.00;;;;;23.08;59.80;102067.88;5075129;28;54658;-69
2022/03/28 05:33:23;;;;;;;;;18.00;15.00;;;;;23.08;59.42;102057.09;5065325;28;45579;-68
2022/03/28 05:35:50;;;;;;;;;23.00;18.33;;;;;23.09;60.07;102069.66;5069601;28;45458;-66
2022/03/28 05:38:15;;;;;;;;;24.33;19.67;;;;;23.06;59.89;102061.63;5071684;28;45181;-69
2022/03/28 05:40:40;;;;;;;;;19.67;18.00;;;;;23.09;59.97;102062.47;5064865;28;60420;-70
2022/03/28 05:43:06;;;;;;;;;22.00;18.00;;;;;23.11;59.63;102063.28;5068604;28;55032;-69
2022/03/28 05:45:31;;;;;;;;;19.00;15.00;;;;;23.11;59.66;102060.59;5054743;28;45644;-69
2022/03/28 05:47:57;;;;;;;;;36.25;32.00;;;;;23.06;58.18;102057.13;5060126;28;45599;-68
2022/03/28 05:50:23;;;;;;;;;50.00;38.75;;;;;22.77;55.32;102057.69;5061959;28;46508;-68
2022/03/28 05:52:48;;;;;;;;;41.50;34.25;;;;;22.32;53.62;102055.00;5066634;28;45459;-70
2022/03/28 05:55:14;;;;;;;;;38.50;31.50;;;;;21.88;53.21;102064.66;5062708;28;45414;-71
2022/03/28 05:57:39;;;;;;;;;49.00;39.25;;;;;21.42;52.53;102062.69;5063034;28;45466;-71
2022/03/28 06:00:05;;;;;;;;;49.50;39.00;;;;;21.01;52.94;102060.53;5063312;28;45927;-68
2022/03/28 06:02:32;;;;;;;;;48.50;39.00;;;;;20.64;52.50;102068.13;5037518;28;46396;-69
2022/03/28 06:04:57;;;;;;;;;50.75;37.50;;;;;20.26;53.11;102064.00;5060450;28;45598;-71
2022/03/28 06:07:23;;;;;;;;;46.75;38.25;;;;;19.95;53.50;102054.44;5048192;28;54375;-70
2022/03/28 06:09:48;;;;;;;;;50.00;38.75;;;;;19.66;53.57;102060.94;5056682;28;59195;-71
2022/03/28 06:12:15;;;;;;;;;50.50;38.00;;;;;19.43;53.96;102060.13;5059756;28;59568;-73
2022/03/28 06:14:40;;;;;;;;;51.25;39.00;;;;;19.20;53.72;102057.59;5068281;28;45315;-71
2022/03/28 06:17:06;;;;;;;;;55.25;42.75;;;;;18.98;54.57;102063.06;5050776;28;45537;-70
2022/03/28 06:19:31;;;;;;;;;53.25;39.50;;;;;18.81;54.85;102064.91;5066777;28;45884;-76
2022/03/28 06:21:56;;;;;;;;;52.50;39.50;;;;;18.62;54.84;102058.66;5050487;28;52287;-74
2022/03/28 06:24:22;;;;;;;;;49.50;39.00;;;;;18.52;55.35;102068.50;5036558;28;45442;-74
2022/03/28 06:26:47;;;;;;;;;49.00;38.50;;;;;18.40;55.61;102063.19;5066927;28;54991;-72
2022/03/28 06:29:13;;;;;;;;;50.25;41.50;;;;;18.31;56.48;102069.41;5067401;28;56474;-75
2022/03/28 06:31:38;;;;;;;;;43.25;33.75;;;;;18.31;58.96;102076.56;5069792;28;45678;-72
2022/03/28 06:34:04;;;;;;;;;41.25;34.00;;;;;18.45;60.04;102068.53;5065426;28;45408;-74
2022/03/28 06:36:30;;;;;;;;;36.00;32.75;;;;;18.66;60.44;102062.25;5055252;28;46097;-75
2022/03/28 06:38:55;;;;;;;;;36.00;30.50;;;;;18.83;60.86;102053.28;5069963;28;45736;-73
2022/03/28 06:41:22;;;;;;;;;36.67;31.00;;;;;19.10;61.45;102056.75;5065514;27;45522;-75
2022/03/28 06:43:47;;;;;;;;;36.67;28.33;;;;;19.28;61.21;102054.00;5058835;28;45435;-73
2022/03/28 06:46:13;;;;;;;;;31.75;29.25;;;;;19.52;61.52;102058.31;5067820;28;49112;-73
2022/03/28 06:48:39;;;;;;;;;31.00;30.00;;;;;19.72;60.92;102062.69;5047822;28;45677;-73
2022/03/28 06:51:06;;;;;;;;;29.33;24.67;;;;;19.89;61.48;102056.28;5073918;28;45306;-74
2022/03/28 06:53:31;;;;;;;;;29.67;24.00;;;;;20.00;61.75;102047.25;5068510;28;47165;-72
2022/03/28 06:55:57;;;;;;;;;32.00;25.00;;;;;20.21;61.06;102055.09;5069012;28;46303;-71
2022/03/28 06:58:22;;;;;;;;;28.67;24.67;;;;;20.37;61.76;102054.06;5070370;28;45497;-71
2022/03/28 07:00:47;;;;;;;;;34.33;27.33;;;;;20.52;61.59;102046.78;5066189;28;45453;-71
2022/03/28 07:03:13;;;;;;;;;30.67;26.33;;;;;20.62;61.91;102044.00;5069998;28;45406;-71
2022/03/28 07:05:38;;;;;;;;;27.00;22.67;;;;;20.78;61.66;102047.38;5052867;28;45447;-73
2022/03/28 07:08:04;;;;;;;;;20.33;20.00;;;;;20.89;61.12;102041.88;5066688;28;60627;-70
2022/03/28 07:10:29;;;;;;;;;27.67;23.00;;;;;21.00;61.61;102036.38;5069447;28;49783;-70
2022/03/28 07:12:55;;;;;;;;;29.67;23.67;;;;;21.12;61.36;102037.09;5065820;28;46746;-73
2022/03/28 07:15:21;;;;;;;;;30.67;23.00;;;;;21.17;61.34;102031.66;5069156;28;45516;-71
2022/03/28 07:17:51;;;;;;;;;27.00;22.33;;;;;21.32;60.88;102041.34;5070504;28;62607;-72
2022/03/28 07:20:17;;;;;;;;;31.00;24.67;;;;;21.39;61.28;102043.91;5069532;28;46482;-72
2022/03/28 07:22:42;;;;;;;;;25.67;18.67;;;;;21.44;61.14;102036.69;5063295;28;45965;-71
2022/03/28 07:25:08;;;;;;;;;27.00;22.67;;;;;21.54;60.55;102036.53;5047902;28;57777;-73
2022/03/28 07:27:38;;;;;;;;;17.67;17.67;;;;;21.60;60.59;102037.34;5069412;28;46621;-71
2022/03/28 07:30:04;;;;;;;;;20.00;18.67;;;;;21.67;60.74;102035.44;5065972;28;45494;-70
2022/03/28 07:32:29;;;;;;;;;24.67;22.33;;;;;21.74;61.02;102041.63;5066126;28;45930;-70
2022/03/28 07:34:55;;;;;;;;;25.00;22.67;;;;;21.80;60.63;102041.50;5069663;28;45383;-69
2022/03/28 07:37:22;;;;;;;;;26.33;20.00;;;;;21.83;60.89;102039.63;5067624;28;61941;-70
2022/03/28 07:39:48;;;;;;;;;24.67;20.33;;;;;21.88;60.44;102040.47;5069763;28;45485;-70
2022/03/28 07:42:13;;;;;;;;;23.33;20.33;;;;;21.91;60.32;102035.03;5184317;22;45519;-69
2022/03/28 07:44:39;;;;;;;;;30.00;23.33;;;;;21.96;60.36;102038.53;5094295;27;45690;-71
2022/03/28 07:47:08;;;;;;;;;21.67;21.67;;;;;22.01;60.40;102032.19;5076021;27;46649;-71
2022/03/28 07:49:35;;;;;;;;;23.33;21.33;;;;;22.06;60.14;102035.69;5093417;27;45454;-70
2022/03/28 07:52:01;;;;;;;;;27.33;22.33;;;;;22.08;60.87;102031.16;5091218;27;45488;-73
2022/03/28 07:54:26;;;;;;;;;23.00;21.00;;;;;22.12;60.67;102030.25;5091860;27;45411;-70
2022/03/28 07:56:52;;;;;;;;;15.00;13.00;;;;;22.15;60.69;102030.16;5093637;27;64655;-72
2022/03/28 07:59:17;;;;;;;;;17.33;16.00;;;;;22.13;60.78;102016.75;5095004;27;45418;-71
2022/03/28 08:01:43;;;;;;;;;20.67;18.33;;;;;22.20;60.09;102030.97;5075758;27;45445;-71
2022/03/28 08:04:08;;;;;;;;;21.00;18.33;;;;;22.20;60.52;102029.16;5090889;27;45766;-70
2022/03/28 08:06:34;;;;;;;;;27.00;23.33;;;;;22.24;60.69;102030.00;5083993;27;45814;-70
2022/03/28 08:08:59;;;;;;;;;24.67;19.67;;;;;22.26;60.51;102033.53;5063499;27;45478;-70
2022/03/28 08:11:25;;;;;;;;;22.00;17.67;;;;;22.28;60.38;102033.53;5093281;27;45482;-69
2022/03/28 08:13:50;;;;;;;;;25.33;21.33;;;;;22.28;60.36;102023.66;5095148;27;52207;-69
2022/03/28 08:16:15;;;;;;;;;24.00;21.33;;;;;22.29;60.41;102022.75;5074505;27;48352;-69
2022/03/28 08:18:41;;;;;;;;;21.67;20.33;;;;;22.35;60.31;102025.31;5091249;27;54974;-70
2022/03/28 08:21:08;;;;;;;;;23.67;18.67;;;;;22.35;60.38;102022.63;5088943;27;45563;-69
2022/03/28 08:23:34;;;;;;;;;22.67;20.67;;;;;22.37;60.49;102015.44;5087471;27;45561;-69
2022/03/28 08:26:00;;;;;;;;;21.67;20.33;;;;;22.40;60.37;102017.16;5090166;27;46437;-69
2022/03/28 08:28:26;;;;;;;;;22.33;18.33;;;;;22.42;60.92;102015.31;5088449;27;59876;-72
2022/03/28 08:30:52;;;;;;;;;23.33;19.00;;;;;22.44;60.19;102014.38;5091877;27;45695;-70
2022/03/28 08:33:17;;;;;;;;;22.33;20.00;;;;;22.44;60.62;102013.50;5078382;27;45945;-73
2022/03/28 08:35:42;;;;;;;;;27.33;21.33;;;;;22.47;60.75;102011.63;5096244;27;45664;-72
2022/03/28 08:38:08;;;;;;;;;21.33;20.67;;;;;22.47;60.40;102008.91;5094846;27;55861;-73
2022/03/28 08:40:34;;;;;;;;;27.67;20.67;;;;;22.52;60.23;102010.63;5058528;27;54191;-74
2022/03/28 08:42:59;;;;;;;;;18.67;18.67;;;;;22.54;60.42;102008.81;5074921;27;45568;-73
2022/03/28 08:45:24;;;;;;;;;22.67;19.00;;;;;22.55;60.70;102007.91;5070886;28;50652;-73
2022/03/28 08:47:50;;;;;;;;;27.67;20.00;;;;;22.56;60.55;101999.78;5072232;28;56651;-75
2022/03/28 08:50:16;;;;;;;;;29.67;21.00;;;;;22.56;60.91;101998.91;5063926;28;45639;-73
2022/03/28 08:52:41;;;;;;;;;22.00;20.67;;;;;22.60;60.96;102006.88;5075720;27;45359;-74
2022/03/28 08:55:10;;;;;;;;;19.67;19.33;;;;;22.62;60.17;102006.84;5065864;28;46594;-73
2022/03/28 08:57:36;;;;;;;;;25.00;17.33;;;;;22.62;60.36;101998.78;5069761;28;45515;-73
2022/03/28 09:00:06;;;;;;;;;22.33;21.33;;;;;22.65;60.57;102002.31;5069447;28;45586;-73
2022/03/28 09:02:40;;;;;;;;;23.00;20.33;;;;;;;;5073082;28;45442;-71
2022/03/28 09:05:06;;;;;;;;;21.33;19.00;;;;;22.68;60.63;101988.75;5075266;28;45581;-71
2022/03/28 09:07:31;;;;;;;;;19.33;19.00;;;;;22.67;60.59;101989.69;5073209;27;45445;-72
2022/03/28 09:10:02;;;;;;;;;25.33;18.33;;;;;22.70;60.62;101997.72;5071429;28;53308;-73
2022/03/28 09:12:27;;;;;;;;;26.00;18.00;;;;;22.72;60.58;101992.28;5074213;27;45535;-72
2022/03/28 09:15:02;;;;;;;;;20.33;19.00;;;;;22.72;60.38;101995.84;5058805;28;45560;-71
2022/03/28 09:17:27;;;;;;;;;21.00;19.67;;;;;22.73;60.55;101994.06;5074999;27;45598;-74
2022/03/28 09:19:58;;;;;;;;;22.00;18.67;;;;;22.69;60.37;101985.16;5073781;28;45722;-72
2022/03/28 09:22:35;;;;;;;;;22.33;19.33;;;;;22.74;60.48;101985.03;5073601;28;45546;-72
2022/03/28 09:25:06;;;;;;;;;25.00;21.67;;;;;22.77;60.21;101984.13;5074104;27;46548;-71
2022/03/28 09:27:33;;;;;;;;;24.67;21.33;;;;;22.77;60.11;101984.13;5064530;28;45391;-72
2022/03/28 09:30:03;;;;;;;;;37.00;24.33;;;;;22.78;60.05;101989.44;5073819;28;45599;-72
2022/03/28 09:32:30;;;;;;;;;32.00;23.67;;;;;22.78;59.73;101988.56;5074143;28;45492;-72
2022/03/28 09:35:13;;;;;;;;;28.00;22.33;;;;;22.78;59.86;101981.38;5067765;28;46123;-71
2022/03/28 09:37:58;;;;;;;;;23.67;22.00;;;;;22.80;59.71;101982.25;5082402;27;45528;-71
2022/03/28 09:40:35;;;;;;;;;30.00;23.00;;;;;22.80;59.74;101982.25;5071622;28;45408;-73
2022/03/28 09:43:03;;;;;;;;;32.33;29.00;;;;;22.81;59.38;101970.56;5063623;28;45830;-72
2022/03/28 09:45:34;;;;;;;;;26.33;24.00;;;;;22.81;59.78;101967.84;5074254;27;46566;-70
2022/03/28 09:48:06;;;;;;;;;28.67;22.33;;;;;22.83;59.63;101971.41;5057174;28;45475;-70
2022/03/28 09:50:31;;;;;;;;;28.67;22.00;;;;;22.84;59.35;101962.38;5088158;27;45387;-72
2022/03/28 09:53:08;;;;;;;;;27.00;21.67;;;;;22.85;59.32;101965.97;5068906;27;45709;-71
2022/03/28 09:55:54;;;;;;;;;28.00;24.33;;;;;22.85;59.38;101958.81;5070489;28;45773;-71
2022/03/28 09:58:46;;;;;;;;;31.67;24.00;;;;;22.86;59.27;101955.19;5057568;28;45453;-69
2022/03/28 10:01:21;;;;;;;;;25.33;21.33;;;;;22.86;59.27;101957.88;5070353;28;45651;-69
2022/03/28 10:03:54;;;;;;;;;30.33;23.67;;;;;22.87;59.44;101953.38;5076675;27;45446;-70
2022/03/28 10:06:20;;;;;;;;;25.67;21.00;;;;;22.87;59.18;101948.88;5077640;28;46280;-69
2022/03/28 10:08:45;;;;;;;;;32.33;24.67;;;;;22.86;59.18;101947.09;5075257;28;45713;-71
2022/03/28 10:11:11;;;;;;;;;33.67;26.00;;;;;22.89;58.99;101948.84;5071557;28;45390;-69
2022/03/28 10:13:37;;;;;;;;;29.33;23.33;;;;;22.90;58.89;101942.53;5076643;28;45461;-66
2022/03/28 10:16:02;;;;;;;;;33.33;26.33;;;;;22.90;58.78;101943.44;5076329;27;46113;-67
2022/03/28 10:18:32;;;;;;;;;34.00;23.33;;;;;22.89;58.83;101938.09;5071866;28;45603;-67
2022/03/28 10:20:59;;;;;;;;;24.33;22.67;;;;;22.87;58.55;101931.81;5068880;28;45387;-69
2022/03/28 10:23:50;;;;;;;;;31.67;21.00;;;;;22.90;58.35;101932.66;5074243;27;45524;-67
2022/03/28 10:26:17;;;;;;;;;28.33;23.33;;;;;22.91;58.58;101930.88;5056229;27;45780;-69
2022/03/28 10:28:42;;;;;;;;;26.67;21.00;;;;;22.90;58.28;101927.25;5072775;28;45552;-70
2022/03/28 10:31:11;;;;;;;;;30.33;20.33;;;;;22.90;58.82;101915.59;5053960;28;45513;-69
2022/03/28 10:33:46;;;;;;;;;28.67;22.33;;;;;22.89;58.45;101911.16;5072877;28;45533;-69
2022/03/28 10:36:23;;;;;;;;;23.33;21.00;;;;;22.92;58.36;101911.09;5073084;28;46411;-69
2022/03/28 10:38:51;;;;;;;;;26.67;19.67;;;;;22.92;58.00;101903.91;5071283;28;45568;-69
2022/03/28 10:41:17;;;;;;;;;23.67;20.00;;;;;22.92;58.13;101898.50;5076647;27;45534;-70
2022/03/28 10:43:42;;;;;;;;;23.33;21.67;;;;;22.93;58.49;101902.09;5079346;27;45636;-71
2022/03/28 10:46:12;;;;;;;;;23.00;19.67;;;;;22.94;58.35;101904.72;5076433;28;61682;-69
2022/03/28 10:48:42;;;;;;;;;23.67;20.67;;;;;22.95;58.10;101897.53;5077629;27;45558;-69
2022/03/28 10:51:12;;;;;;;;;23.67;20.67;;;;;22.95;58.16;101895.72;5074834;27;45690;-69
2022/03/28 10:53:42;;;;;;;;;21.67;21.00;;;;;22.97;58.00;101893.03;5076265;27;45863;-69
2022/03/28 10:56:17;;;;;;;;;27.00;21.67;;;;;22.97;58.35;101888.50;5077965;28;46725;-69
2022/03/28 10:58:53;;;;;;;;;25.00;20.67;;;;;22.98;58.02;101884.91;5077039;28;45352;-70
2022/03/28 11:01:28;;;;;;;;;31.00;22.00;;;;;22.97;58.15;101875.03;5076891;28;45388;-70
2022/03/28 11:03:54;;;;;;;;;28.00;20.00;;;;;22.98;57.66;101870.53;5078203;27;45604;-69
2022/03/28 11:06:45;;;;;;;;;23.67;20.00;;;;;22.98;57.65;101863.34;5077369;27;45515;-70